Time;durP1;ratioP1;P1;durP2;ratioP2;P2;SDS_P1;SDS_P2;PMS_P1;PMS_P2;Temp;Humidity;BMP_temperature;BMP_pressure;BME280_temperature;BME280_humidity;BME280_pressure;Samples;Min_cycle;Max_cycle;Signal;HPM_P1;HPM_P2
2021/12/19 00:01:29;;;;;;;9.55;3.90;;;6.70;99.90;;;;;;5058772;28;20029;-66
2021/12/19 00:04:14;;;;;;;8.20;3.83;;;6.70;99.90;;;;;;5057924;28;20024;-66
2021/12/19 00:09:29;;;;;;;10.50;4.53;;;6.70;99.90;;;;;;5058987;28;20031;-66
2021/12/19 00:11:58;;;;;;;11.80;6.30;;;6.70;99.90;;;;;;5058756;28;20502;-66
2021/12/19 00:14:26;;;;;;;12.30;5.95;;;6.70;99.90;;;;;;5057653;28;20435;-66
2021/12/19 00:16:54;;;;;;;11.15;5.50;;;6.70;99.90;;;;;;5059272;28;20085;-66
2021/12/19 00:19:22;;;;;;;10.85;5.90;;;6.70;99.90;;;;;;5058938;28;20317;-66
2021/12/19 00:21:50;;;;;;;7.63;4.70;;;6.70;99.90;;;;;;5057617;28;20021;-66
2021/12/19 00:24:18;;;;;;;9.95;5.35;;;6.70;99.90;;;;;;5058471;28;20032;-66
2021/12/19 00:26:46;;;;;;;9.90;5.85;;;6.70;99.90;;;;;;5057787;28;20025;-66
2021/12/19 00:29:14;;;;;;;8.02;4.35;;;6.70;99.90;;;;;;5057496;28;20029;-66
2021/12/19 00:31:45;;;;;;;6.07;3.10;;;6.70;99.90;;;;;;5057438;28;20021;-66
2021/12/19 00:34:15;;;;;;;8.15;3.47;;;6.70;99.90;;;;;;5057664;28;20017;-67
2021/12/19 00:36:43;;;;;;;6.18;2.95;;;6.70;99.90;;;;;;5057354;28;20390;-68
2021/12/19 00:39:11;;;;;;;5.05;3.47;;;6.70;99.90;;;;;;5057337;28;20025;-68
2021/12/19 00:41:39;;;;;;;7.68;3.30;;;6.70;99.90;;;;;;5057264;28;20051;-68
2021/12/19 00:44:12;;;;;;;6.05;3.70;;;6.70;99.90;;;;;;5056399;28;20034;-68
2021/12/19 00:46:51;;;;;;;5.72;3.67;;;6.70;99.90;;;;;;5057194;28;20029;-69
2021/12/19 00:49:22;;;;;;;5.82;3.75;;;6.70;99.90;;;;;;5058234;28;20439;-68
2021/12/19 00:51:50;;;;;;;6.80;3.25;;;6.70;99.90;;;;;;5058280;28;20036;-68
2021/12/19 00:54:18;;;;;;;5.25;3.40;;;6.70;99.90;;;;;;5057857;28;20055;-68
2021/12/19 00:56:48;;;;;;;6.55;3.35;;;6.70;99.90;;;;;;5057144;28;20443;-68
2021/12/19 00:59:17;;;;;;;7.70;3.92;;;6.70;99.90;;;;;;5057982;28;20047;-68
2021/12/19 01:01:46;;;;;;;8.00;4.05;;;6.60;99.90;;;;;;5057311;28;20049;-68
2021/12/19 01:04:16;;;;;;;7.15;4.13;;;6.70;99.90;;;;;;5058043;28;20025;-68
2021/12/19 01:06:45;;;;;;;6.80;3.60;;;6.60;99.90;;;;;;5057561;28;20025;-68
2021/12/19 01:09:13;;;;;;;14.32;5.03;;;6.60;99.90;;;;;;5056804;28;20056;-68
2021/12/19 01:11:47;;;;;;;6.95;3.97;;;6.60;99.90;;;;;;5056705;28;20032;-68
2021/12/19 01:14:16;;;;;;;7.28;4.15;;;6.60;99.90;;;;;;5056820;28;20467;-68
2021/12/19 01:16:44;;;;;;;13.10;4.18;;;6.60;99.90;;;;;;5057006;28;20079;-68
2021/12/19 01:19:11;;;;;;;5.50;3.00;;;6.60;99.90;;;;;;5056733;28;20349;-68
2021/12/19 01:21:38;;;;;;;8.65;4.53;;;6.50;99.90;;;;;;5055703;28;20021;-68
2021/12/19 01:24:06;;;;;;;7.00;3.85;;;6.50;99.90;;;;;;5057282;28;20028;-69
2021/12/19 01:26:34;;;;;;;5.60;3.17;;;6.50;99.90;;;;;;5056612;28;20111;-68
2021/12/19 01:29:02;;;;;;;4.70;3.00;;;6.50;99.90;;;;;;5056565;28;20017;-68
2021/12/19 01:31:30;;;;;;;4.63;2.65;;;6.50;99.90;;;;;;5056234;28;20032;-68
2021/12/19 01:33:57;;;;;;;4.15;2.00;;;6.40;99.90;;;;;;5056981;28;20017;-68
2021/12/19 01:36:24;;;;;;;6.43;2.35;;;6.40;99.90;;;;;;5040006;28;20021;-68
2021/12/19 01:38:52;;;;;;;8.45;2.45;;;6.40;99.90;;;;;;5056196;28;20028;-68
2021/12/19 01:41:19;;;;;;;5.07;2.78;;;6.30;99.90;;;;;;5057873;28;20423;-68
2021/12/19 01:43:47;;;;;;;4.78;2.47;;;6.30;99.90;;;;;;5057353;28;20040;-68
2021/12/19 01:46:15;;;;;;;4.13;2.35;;;6.30;99.90;;;;;;5057253;28;20029;-68
2021/12/19 01:48:43;;;;;;;6.18;3.30;;;6.40;99.90;;;;;;5056070;28;20078;-68
2021/12/19 01:51:11;;;;;;;5.38;2.78;;;6.30;99.90;;;;;;5056761;28;20075;-68
2021/12/19 01:53:38;;;;;;;7.00;2.92;;;6.30;99.90;;;;;;5056104;28;20017;-69
2021/12/19 01:56:07;;;;;;;5.82;3.05;;;6.30;99.90;;;;;;5056840;28;20029;-68
2021/12/19 01:58:37;;;;;;;5.05;2.63;;;6.30;99.90;;;;;;5056238;28;20030;-68
2021/12/19 02:01:05;;;;;;;4.20;2.05;;;6.30;99.90;;;;;;5056005;28;20417;-68
2021/12/19 02:03:35;;;;;;;4.53;2.38;;;6.30;99.90;;;;;;5055306;28;20078;-68
2021/12/19 02:06:04;;;;;;;3.78;1.77;;;6.30;99.90;;;;;;5056105;28;20029;-68
2021/12/19 02:08:32;;;;;;;3.80;2.05;;;6.30;99.90;;;;;;5056131;28;20029;-68
2021/12/19 02:11:00;;;;;;;6.00;2.63;;;6.20;99.90;;;;;;5056069;28;20021;-68
2021/12/19 02:13:28;;;;;;;4.80;2.53;;;6.20;99.90;;;;;;5058989;28;20104;-68
2021/12/19 02:15:56;;;;;;;3.75;2.00;;;6.20;99.90;;;;;;5061588;28;20309;-68
2021/12/19 02:18:24;;;;;;;4.72;2.05;;;6.20;99.90;;;;;;5061523;28;20044;-68
2021/12/19 02:20:56;;;;;;;4.32;2.15;;;6.20;99.90;;;;;;5061745;28;20024;-68
2021/12/19 02:23:25;;;;;;;4.00;2.15;;;6.10;99.90;;;;;;5060951;28;20056;-68
2021/12/19 02:25:54;;;;;;;4.53;2.08;;;6.20;99.90;;;;;;5061126;28;20017;-68
2021/12/19 02:28:22;;;;;;;7.65;3.45;;;6.10;99.90;;;;;;5060833;28;20028;-68
2021/12/19 02:30:51;;;;;;;4.43;2.30;;;6.10;99.90;;;;;;5060703;28;20017;-68
2021/12/19 02:33:22;;;;;;;3.92;1.88;;;6.10;99.90;;;;;;5059913;28;20027;-68
2021/12/19 02:36:04;;;;;;;5.15;2.80;;;6.10;99.90;;;;;;5059624;28;20024;-68
2021/12/19 02:39:16;;;;;;;6.30;2.45;;;6.10;99.90;;;;;;5059497;28;20028;-68
2021/12/19 02:49:31;;;;;;;5.28;2.22;;;6.00;99.90;;;;;;5059512;28;20028;-68
2021/12/19 02:52:00;;;;;;;4.95;2.80;;;6.00;99.90;;;;;;5059623;28;20053;-68
2021/12/19 02:54:28;;;;;;;8.60;3.13;;;6.00;99.90;;;;;;5059395;28;20081;-68
2021/12/19 02:56:57;;;;;;;4.47;2.45;;;6.00;99.90;;;;;;5060484;28;20108;-68
2021/12/19 02:59:24;;;;;;;3.22;1.98;;;6.00;99.90;;;;;;5059325;28;20025;-68
2021/12/19 03:01:52;;;;;;;4.43;2.33;;;5.90;99.90;;;;;;5059088;28;20110;-68
2021/12/19 03:04:22;;;;;;;5.13;2.60;;;6.00;99.90;;;;;;5060254;28;20100;-68
2021/12/19 03:06:50;;;;;;;5.85;2.97;;;6.00;99.90;;;;;;5060567;28;20025;-68
2021/12/19 03:09:40;;;;;;;4.82;2.58;;;6.00;99.90;;;;;;5058895;28;20120;-68
2021/12/19 03:12:21;;;;;;;8.70;3.00;;;6.00;99.90;;;;;;5059989;28;20417;-68
2021/12/19 03:20:22;;;;;;;6.72;2.60;;;5.90;99.90;;;;;;5059222;28;20071;-68
2021/12/19 03:22:50;;;;;;;6.38;2.85;;;5.90;99.90;;;;;;5058855;28;20025;-68
2021/12/19 03:25:18;;;;;;;7.68;3.38;;;5.90;99.90;;;;;;5057882;28;20025;-68
2021/12/19 03:27:46;;;;;;;6.18;2.22;;;5.90;99.90;;;;;;5058769;28;20471;-68
2021/12/19 03:30:14;;;;;;;6.00;3.22;;;5.90;99.90;;;;;;5058728;28;20032;-68
2021/12/19 03:32:42;;;;;;;6.15;3.22;;;5.90;99.90;;;;;;5057803;28;20349;-68
2021/12/19 03:35:10;;;;;;;6.47;2.92;;;5.90;99.90;;;;;;5058798;28;20437;-68
2021/12/19 03:37:37;;;;;;;6.78;3.03;;;5.90;99.90;;;;;;5059482;28;20021;-68
2021/12/19 03:40:12;;;;;;;5.72;3.22;;;5.90;99.90;;;;;;5059951;28;20013;-68
2021/12/19 03:42:45;;;;;;;9.65;3.70;;;5.90;99.90;;;;;;5059385;28;20055;-68
2021/12/19 03:45:18;;;;;;;7.22;3.40;;;5.90;99.90;;;;;;5058432;28;20429;-68
2021/12/19 03:47:47;;;;;;;10.43;4.55;;;5.90;99.90;;;;;;5059861;28;20029;-68
2021/12/19 03:50:19;;;;;;;6.78;3.50;;;5.90;99.90;;;;;;5059284;28;20025;-68
2021/12/19 03:52:48;;;;;;;6.72;3.42;;;5.90;99.90;;;;;;5059043;28;20421;-68
2021/12/19 03:55:16;;;;;;;9.10;3.72;;;5.80;99.90;;;;;;5059061;28;20345;-68
2021/12/19 03:57:43;;;;;;;7.95;3.42;;;5.80;99.90;;;;;;5058690;28;20021;-68
2021/12/19 04:00:16;;;;;;;8.20;2.70;;;5.80;99.90;;;;;;5058168;28;20017;-68
2021/12/19 04:02:45;;;;;;;8.57;3.63;;;5.80;99.90;;;;;;5056997;28;20329;-68
2021/12/19 04:05:13;;;;;;;7.85;3.67;;;5.80;99.90;;;;;;5057216;28;20028;-68
2021/12/19 04:07:40;;;;;;;10.60;3.50;;;5.80;99.90;;;;;;5058024;28;20025;-68
2021/12/19 04:10:07;;;;;;;6.97;3.40;;;5.80;99.90;;;;;;5058470;28;20021;-68
2021/12/19 04:12:35;;;;;;;7.90;2.97;;;5.90;99.90;;;;;;5058466;28;20035;-68
2021/12/19 04:15:04;;;;;;;6.97;3.90;;;5.80;99.90;;;;;;5058048;28;20017;-68
2021/12/19 04:17:33;;;;;;;6.13;3.25;;;5.90;99.90;;;;;;5058574;28;20032;-68
2021/12/19 04:20:01;;;;;;;11.50;4.47;;;5.90;99.90;;;;;;5058396;28;20021;-68
2021/12/19 04:22:28;;;;;;;8.70;3.75;;;5.90;99.90;;;;;;5059234;28;20032;-68
2021/12/19 04:24:56;;;;;;;8.63;3.60;;;5.90;99.90;;;;;;5058897;28;20056;-68
2021/12/19 04:27:23;;;;;;;13.95;4.78;;;5.90;99.90;;;;;;5058744;28;20098;-68
2021/12/19 04:29:53;;;;;;;7.63;3.95;;;5.90;99.90;;;;;;5058253;28;20025;-68
2021/12/19 04:32:26;;;;;;;6.80;3.17;;;5.90;99.90;;;;;;5058542;28;20025;-68
2021/12/19 04:34:54;;;;;;;7.50;3.78;;;5.90;99.90;;;;;;5057368;28;20029;-68
2021/12/19 04:37:49;;;;;;;6.60;3.70;;;5.90;99.90;;;;;;5058903;28;20393;-68
2021/12/19 04:43:44;;;;;;;7.63;4.10;;;5.90;99.90;;;;;;5057371;28;20114;-68
2021/12/19 04:53:37;;;;;;;11.05;4.72;;;5.90;99.90;;;;;;5057270;28;20425;-68
2021/12/19 04:56:30;;;;;;;7.95;3.90;;;5.90;99.90;;;;;;5056912;28;20052;-68
2021/12/19 04:59:24;;;;;;;8.43;4.00;;;5.90;99.90;;;;;;5057060;28;20417;-68
2021/12/19 05:02:06;;;;;;;8.00;3.90;;;5.90;99.90;;;;;;5057798;28;20373;-68
2021/12/19 05:15:05;;;;;;;9.85;3.63;;;5.90;99.90;;;;;;5057060;28;20023;-68
2021/12/19 05:17:34;;;;;;;6.78;4.20;;;6.00;99.90;;;;;;5057883;28;20033;-68
2021/12/19 05:20:14;;;;;;;7.47;3.75;;;6.00;99.90;;;;;;5057596;28;20086;-68
2021/12/19 05:22:56;;;;;;;8.05;3.88;;;6.00;99.90;;;;;;5057699;28;20032;-68
2021/12/19 05:25:24;;;;;;;6.95;3.58;;;6.00;99.90;;;;;;5055659;28;20111;-68
2021/12/19 05:27:56;;;;;;;8.10;3.85;;;6.00;99.90;;;;;;5057115;28;20025;-68
2021/12/19 05:30:24;;;;;;;8.40;3.85;;;6.00;99.90;;;;;;5056596;28;20029;-68
2021/12/19 05:32:54;;;;;;;12.57;4.35;;;6.00;99.90;;;;;;5056417;28;20063;-68
2021/12/19 05:35:42;;;;;;;5.55;2.45;;;6.00;99.90;;;;;;5056617;28;20436;-68
2021/12/19 05:46:33;;;;;;;9.00;4.32;;;6.00;99.90;;;;;;5057785;28;20317;-68
2021/12/19 05:49:01;;;;;;;9.32;3.97;;;6.00;99.90;;;;;;5056901;28;20029;-68
2021/12/19 05:51:29;;;;;;;8.00;3.95;;;5.90;99.90;;;;;;5057438;28;20409;-68
2021/12/19 05:53:57;;;;;;;6.43;3.42;;;5.90;99.90;;;;;;5057045;28;20036;-68
2021/12/19 05:56:26;;;;;;;8.75;4.53;;;5.90;99.90;;;;;;5057206;28;20036;-68
2021/12/19 05:58:55;;;;;;;8.95;3.95;;;6.00;99.90;;;;;;5057249;28;20431;-68
2021/12/19 06:01:23;;;;;;;8.57;4.03;;;6.00;99.90;;;;;;5057151;28;20040;-68
2021/12/19 06:03:50;;;;;;;8.13;3.92;;;6.00;99.90;;;;;;5057513;28;20108;-68
2021/12/19 06:06:18;;;;;;;11.77;4.63;;;6.00;99.90;;;;;;5056230;28;20151;-68
2021/12/19 06:08:46;;;;;;;7.63;4.22;;;5.90;99.90;;;;;;5055141;28;20021;-68
2021/12/19 06:11:14;;;;;;;11.90;5.35;;;5.90;99.90;;;;;;5056058;28;20047;-68
2021/12/19 06:13:42;;;;;;;8.75;4.22;;;5.90;99.90;;;;;;5056288;28;20033;-68
2021/12/19 06:16:10;;;;;;;11.20;5.05;;;5.90;99.90;;;;;;5056146;28;20032;-68
2021/12/19 06:18:38;;;;;;;10.75;5.68;;;5.90;99.90;;;;;;5056431;28;20025;-68
2021/12/19 06:21:06;;;;;;;11.65;5.18;;;5.90;99.90;;;;;;5056051;28;20044;-68
2021/12/19 06:23:33;;;;;;;8.52;4.00;;;6.00;99.90;;;;;;5054892;28;20048;-68
2021/12/19 06:26:02;;;;;;;9.85;4.40;;;6.00;99.90;;;;;;5056315;28;20352;-68
2021/12/19 06:28:30;;;;;;;9.57;5.47;;;6.00;99.90;;;;;;5057349;28;20100;-68
2021/12/19 06:30:58;;;;;;;11.73;4.72;;;6.00;99.90;;;;;;5056715;28;20079;-68
2021/12/19 06:33:25;;;;;;;12.75;5.57;;;6.00;99.90;;;;;;5057465;28;20020;-68
2021/12/19 06:35:53;;;;;;;8.25;4.15;;;5.90;99.90;;;;;;5056860;28;20050;-68
2021/12/19 06:38:20;;;;;;;8.80;4.72;;;5.90;99.90;;;;;;5057416;28;20021;-68
2021/12/19 06:40:47;;;;;;;7.13;3.17;;;5.90;99.90;;;;;;5055739;28;20041;-68
2021/12/19 06:43:15;;;;;;;6.35;2.83;;;6.00;99.90;;;;;;5056815;28;20060;-68
2021/12/19 06:45:43;;;;;;;9.85;2.17;;;6.00;99.90;;;;;;5039123;28;20036;-68
2021/12/19 06:48:11;;;;;;;9.48;2.17;;;6.00;99.90;;;;;;5056368;28;20071;-68
2021/12/19 06:50:39;;;;;;;9.40;4.00;;;6.00;99.90;;;;;;5056104;28;20032;-68
2021/12/19 06:53:06;;;;;;;3.30;1.50;;;6.00;99.90;;;;;;5055706;28;20021;-68
2021/12/19 06:55:34;;;;;;;3.17;1.40;;;6.00;99.90;;;;;;5037650;28;20459;-68
2021/12/19 06:58:02;;;;;;;4.10;1.42;;;6.00;99.90;;;;;;5055739;28;20079;-68
2021/12/19 07:00:30;;;;;;;3.17;1.63;;;6.10;99.90;;;;;;5057985;28;20108;-68
2021/12/19 07:02:57;;;;;;;3.55;1.75;;;6.10;99.90;;;;;;5059225;28;20036;-68
2021/12/19 07:05:24;;;;;;;3.38;1.50;;;6.10;99.90;;;;;;5058101;28;20049;-68
2021/12/19 07:07:51;;;;;;;5.72;1.95;;;6.10;99.90;;;;;;5059130;28;20074;-68
2021/12/19 07:10:19;;;;;;;4.47;2.30;;;6.10;99.90;;;;;;5059799;28;20037;-68
2021/12/19 07:12:47;;;;;;;5.85;2.35;;;6.10;99.90;;;;;;5059835;28;20409;-68
2021/12/19 07:15:17;;;;;;;5.43;3.40;;;6.10;99.90;;;;;;5058837;28;20116;-68
2021/12/19 07:17:45;;;;;;;6.18;3.10;;;6.10;99.90;;;;;;5060095;28;20025;-68
2021/12/19 07:20:13;;;;;;;6.80;4.85;;;6.00;99.90;;;;;;5060492;28;20029;-68
2021/12/19 07:22:41;;;;;;;10.25;3.70;;;6.10;99.90;;;;;;5058504;28;20035;-68
2021/12/19 07:25:10;;;;;;;9.45;4.00;;;6.00;99.90;;;;;;5058697;28;20033;-68
2021/12/19 07:27:38;;;;;;;3.15;1.63;;;6.00;99.90;;;;;;5059759;28;20095;-68
2021/12/19 07:30:07;;;;;;;5.72;1.85;;;6.00;99.90;;;;;;5059691;28;20056;-68
2021/12/19 07:32:36;;;;;;;3.50;1.58;;;6.00;99.90;;;;;;5058644;28;20067;-68
2021/12/19 07:35:07;;;;;;;2.78;1.02;;;6.00;99.90;;;;;;5058545;28;20033;-67
2021/12/19 07:37:37;;;;;;;2.50;1.10;;;6.00;99.90;;;;;;5058502;28;20443;-67
2021/12/19 07:40:17;;;;;;;7.75;2.70;;;6.00;99.90;;;;;;5058382;28;20111;-73
2021/12/19 07:42:46;;;;;;;2.25;1.00;;;6.10;99.90;;;;;;5058508;28;20063;-73
2021/12/19 07:45:15;;;;;;;2.00;0.98;;;6.10;99.90;;;;;;5057321;28;20372;-71
2021/12/19 07:47:44;;;;;;;1.90;0.98;;;6.10;99.90;;;;;;5059173;28;20040;-72
2021/12/19 07:50:13;;;;;;;2.42;0.90;;;6.10;99.90;;;;;;5057465;28;20029;-71
2021/12/19 07:52:40;;;;;;;2.10;1.33;;;6.10;99.90;;;;;;5059159;28;20025;-72
2021/12/19 07:55:08;;;;;;;2.03;0.73;;;6.10;99.90;;;;;;5058922;28;20045;-72
2021/12/19 07:57:35;;;;;;;2.75;0.88;;;6.10;99.90;;;;;;5059434;28;20064;-71
2021/12/19 08:00:05;;;;;;;1.30;0.60;;;6.10;99.90;;;;;;5059803;28;20056;-71
2021/12/19 08:02:33;;;;;;;1.50;0.80;;;6.10;99.90;;;;;;5059078;28;20025;-75
2021/12/19 08:05:01;;;;;;;1.25;0.60;;;6.00;99.90;;;;;;5058902;28;20058;-75
2021/12/19 08:07:30;;;;;;;1.15;0.57;;;6.00;99.90;;;;;;5058927;28;20029;-75
2021/12/19 08:10:13;;;;;;;0.93;0.40;;;6.00;99.90;;;;;;5058593;28;20045;-70
2021/12/19 08:12:42;;;;;;;0.73;0.20;;;6.00;99.90;;;;;;5058253;28;20425;-69
2021/12/19 08:15:12;;;;;;;1.65;0.30;;;6.00;99.90;;;;;;5057526;28;20017;-69
2021/12/19 08:17:39;;;;;;;1.60;0.55;;;6.10;99.90;;;;;;5058438;28;20032;-69
2021/12/19 08:20:14;;;;;;;1.65;0.80;;;6.20;99.90;;;;;;5058299;28;20013;-68
2021/12/19 08:22:42;;;;;;;3.15;0.93;;;6.20;99.90;;;;;;5058314;28;20029;-68
2021/12/19 08:25:10;;;;;;;1.23;0.70;;;6.20;99.90;;;;;;5057570;28;20036;-68
2021/12/19 08:27:37;;;;;;;1.35;0.40;;;6.20;99.90;;;;;;5057909;28;20329;-68
2021/12/19 08:30:09;;;;;;;0.90;0.40;;;6.20;99.90;;;;;;5057694;28;20025;-68
2021/12/19 08:32:38;;;;;;;0.63;0.30;;;6.30;99.90;;;;;;5057801;28;20397;-68
2021/12/19 08:35:07;;;;;;;1.52;0.65;;;6.30;99.90;;;;;;5058055;28;20028;-68
2021/12/19 08:37:35;;;;;;;0.57;0.32;;;6.30;99.90;;;;;;5058863;28;20409;-68
2021/12/19 08:40:05;;;;;;;0.75;0.30;;;6.30;99.90;;;;;;5058478;28;20025;-68
2021/12/19 08:42:34;;;;;;;1.30;0.45;;;6.30;99.90;;;;;;5058448;28;20028;-68
2021/12/19 08:45:03;;;;;;;1.20;0.50;;;6.30;99.90;;;;;;5058559;28;20083;-68
2021/12/19 08:47:31;;;;;;;2.45;0.50;;;6.30;99.90;;;;;;5058488;28;20096;-68
2021/12/19 08:49:58;;;;;;;1.27;0.40;;;6.30;99.90;;;;;;5058091;28;20040;-68
2021/12/19 08:52:26;;;;;;;0.95;0.57;;;6.30;99.90;;;;;;5058061;28;20075;-68
2021/12/19 08:54:53;;;;;;;1.58;0.65;;;6.40;99.90;;;;;;5056563;28;20461;-68
2021/12/19 08:57:21;;;;;;;1.58;0.77;;;6.30;99.90;;;;;;5056561;28;20048;-68
2021/12/19 08:59:48;;;;;;;3.80;1.10;;;6.30;99.90;;;;;;5055884;28;20484;-68
2021/12/19 09:02:16;;;;;;;1.63;0.90;;;6.30;99.90;;;;;;5055928;28;20032;-68
2021/12/19 09:04:44;;;;;;;1.77;0.63;;;6.30;99.90;;;;;;5057144;28;20079;-68
2021/12/19 09:07:14;;;;;;;1.88;0.95;;;6.30;99.90;;;;;;5055833;28;20121;-68
2021/12/19 09:09:43;;;;;;;3.00;1.23;;;6.20;99.90;;;;;;5056727;28;20029;-72
2021/12/19 09:12:11;;;;;;;3.08;1.20;;;6.20;99.90;;;;;;5056598;28;20032;-68
2021/12/19 09:14:39;;;;;;;9.20;2.08;;;6.20;99.90;;;;;;5056924;28;20047;-68
2021/12/19 09:17:07;;;;;;;2.33;1.23;;;6.20;99.90;;;;;;5057085;28;20020;-69
2021/12/19 09:19:36;;;;;;;6.15;1.35;;;6.20;99.90;;;;;;5057613;28;20417;-70
2021/12/19 09:22:05;;;;;;;3.28;1.30;;;6.20;99.90;;;;;;5057332;28;20060;-69
2021/12/19 09:24:33;;;;;;;2.38;1.08;;;6.20;99.90;;;;;;5056681;28;20025;-71
2021/12/19 09:27:03;;;;;;;1.58;0.80;;;6.20;99.90;;;;;;5057729;28;20014;-69
2021/12/19 09:29:31;;;;;;;3.53;1.10;;;6.20;99.90;;;;;;5057483;28;20025;-68
2021/12/19 09:31:59;;;;;;;2.75;1.10;;;6.20;99.90;;;;;;5057038;28;20163;-68
2021/12/19 09:34:28;;;;;;;1.30;0.65;;;6.20;99.90;;;;;;5057596;28;20028;-67
2021/12/19 09:36:58;;;;;;;6.78;3.75;;;6.20;99.90;;;;;;5057370;28;20353;-67
2021/12/19 09:39:26;;;;;;;3.70;1.55;;;6.20;99.90;;;;;;5055434;28;20439;-67
2021/12/19 09:42:06;;;;;;;3.28;1.33;;;6.20;99.90;;;;;;5056349;28;20029;-67
2021/12/19 09:44:36;;;;;;;2.75;1.42;;;6.20;99.90;;;;;;5056538;28;20025;-67
2021/12/19 09:47:05;;;;;;;3.25;1.33;;;6.20;99.90;;;;;;5056253;28;20029;-67
2021/12/19 09:49:34;;;;;;;3.15;1.73;;;6.20;99.90;;;;;;5055950;28;20025;-71
2021/12/19 09:52:07;;;;;;;4.20;1.90;;;6.30;99.90;;;;;;5056171;28;20025;-70
2021/12/19 09:54:39;;;;;;;4.32;1.95;;;6.30;99.90;;;;;;5056080;28;20505;-71
2021/12/19 09:57:08;;;;;;;4.35;2.10;;;6.30;99.90;;;;;;5056127;28;20025;-69
2021/12/19 09:59:36;;;;;;;4.03;2.00;;;6.30;99.90;;;;;;5056583;28;20047;-73
2021/12/19 10:02:04;;;;;;;4.60;1.88;;;6.30;99.90;;;;;;5057679;28;20078;-74
2021/12/19 10:04:37;;;;;;;5.40;2.35;;;6.40;99.90;;;;;;5057155;28;20021;-71
2021/12/19 10:07:07;;;;;;;4.35;1.83;;;6.40;99.90;;;;;;5057075;28;20029;-73
2021/12/19 10:09:38;;;;;;;6.35;2.55;;;6.40;99.90;;;;;;5057338;28;20075;-68
2021/12/19 10:12:38;;;;;;;3.35;1.50;;;6.30;99.90;;;;;;5057011;28;20078;-68
2021/12/19 10:15:22;;;;;;;3.78;1.92;;;6.30;99.90;;;;;;5055999;28;20025;-68
2021/12/19 10:18:07;;;;;;;11.18;3.22;;;6.30;99.90;;;;;;5056933;28;20052;-68
2021/12/19 10:20:59;;;;;;;6.85;3.22;;;6.30;99.90;;;;;;5055957;28;20021;-68
2021/12/19 10:23:28;;;;;;;8.32;4.00;;;6.40;99.90;;;;;;5056952;28;20309;-68
2021/12/19 10:26:06;;;;;;;8.55;3.65;;;6.30;99.90;;;;;;5056022;28;20045;-66
2021/12/19 10:28:49;;;;;;;7.40;3.17;;;6.30;99.90;;;;;;5056075;28;20417;-68
2021/12/19 10:31:17;;;;;;;7.10;2.55;;;6.40;99.90;;;;;;5055905;28;20021;-68
2021/12/19 10:33:45;;;;;;;6.03;2.85;;;6.40;99.90;;;;;;5057340;28;20423;-66
2021/12/19 10:36:13;;;;;;;5.72;3.22;;;6.40;99.90;;;;;;5059768;28;20414;-67
2021/12/19 10:38:45;;;;;;;6.63;2.60;;;6.40;99.90;;;;;;5060185;28;20013;-66
2021/12/19 10:41:21;;;;;;;5.57;2.30;;;6.40;99.90;;;;;;5058666;28;20051;-66
2021/12/19 10:44:02;;;;;;;9.68;3.08;;;6.50;99.90;;;;;;5060653;28;20468;-66
2021/12/19 10:46:33;;;;;;;6.20;2.88;;;6.50;99.90;;;;;;5060143;28;20029;-66
2021/12/19 10:49:03;;;;;;;3.85;1.85;;;6.40;99.90;;;;;;5060432;28;20025;-70
2021/12/19 10:51:32;;;;;;;6.50;2.58;;;6.50;99.90;;;;;;5059274;28;20091;-69
2021/12/19 10:54:01;;;;;;;5.30;2.63;;;6.50;99.90;;;;;;5060628;28;20294;-67
2021/12/19 10:56:32;;;;;;;6.95;2.50;;;6.50;99.90;;;;;;5060515;28;20037;-66
2021/12/19 10:59:09;;;;;;;4.38;1.77;;;6.50;99.90;;;;;;5060301;28;20017;-66
2021/12/19 11:01:38;;;;;;;3.70;1.80;;;6.60;99.90;;;;;;5059830;28;20028;-66
2021/12/19 11:04:17;;;;;;;3.28;1.40;;;6.60;99.90;;;;;;5059683;28;20025;-66
2021/12/19 11:06:49;;;;;;;7.78;1.80;;;6.60;99.90;;;;;;5059724;28;20021;-67
2021/12/19 11:09:27;;;;;;;2.28;1.02;;;6.70;99.90;;;;;;5059428;28;20364;-67
2021/12/19 11:12:01;;;;;;;4.07;1.23;;;6.70;99.90;;;;;;5058943;28;20032;-65
2021/12/19 11:14:39;;;;;;;2.58;1.15;;;6.70;99.90;;;;;;5060016;28;20113;-67
2021/12/19 11:17:18;;;;;;;2.58;1.35;;;6.70;99.90;;;;;;5058915;28;20047;-66
2021/12/19 11:19:47;;;;;;;3.72;1.20;;;6.70;99.90;;;;;;5059084;28;20028;-67
2021/12/19 11:22:23;;;;;;;5.63;1.95;;;6.80;99.90;;;;;;5058870;28;20028;-68
2021/12/19 11:25:04;;;;;;;2.83;1.75;;;6.80;99.90;;;;;;5059181;28;20032;-68
2021/12/19 11:27:34;;;;;;;6.30;1.50;;;6.80;99.90;;;;;;5059364;28;20028;-70
2021/12/19 11:30:03;;;;;;;2.75;1.10;;;6.80;99.90;;;;;;5060256;28;20154;-65
2021/12/19 11:32:51;;;;;;;3.08;0.70;;;6.80;99.90;;;;;;5059674;28;20100;-66
2021/12/19 11:35:36;;;;;;;3.55;1.10;;;6.80;99.90;;;;;;5059685;28;20325;-66
2021/12/19 11:38:09;;;;;;;2.83;1.38;;;6.80;99.90;;;;;;5059591;28;20025;-66
2021/12/19 11:40:37;;;;;;;2.88;1.05;;;6.80;99.90;;;;;;5059478;28;20021;-70
2021/12/19 11:43:09;;;;;;;4.43;1.45;;;6.80;99.90;;;;;;5059366;28;20100;-68
2021/12/19 11:45:45;;;;;;;3.95;1.38;;;6.70;99.90;;;;;;5057585;28;20113;-69
2021/12/19 11:48:23;;;;;;;5.38;1.17;;;6.70;99.90;;;;;;5058325;28;20051;-69
2021/12/19 11:50:57;;;;;;;6.80;1.58;;;6.70;99.90;;;;;;5059206;28;20029;-68
2021/12/19 11:53:34;;;;;;;3.75;1.25;;;6.70;99.90;;;;;;5058269;28;20396;-68
2021/12/19 11:56:09;;;;;;;5.53;1.35;;;6.70;99.90;;;;;;5056916;28;20118;-68
2021/12/19 11:58:57;;;;;;;3.30;1.33;;;6.70;99.90;;;;;;5058878;28;20032;-67
2021/12/19 12:01:31;;;;;;;3.78;1.60;;;6.60;99.90;;;;;;5058101;28;20029;-67
2021/12/19 12:04:12;;;;;;;3.80;1.67;;;6.60;99.90;;;;;;5058226;28;20033;-68
2021/12/19 12:06:54;;;;;;;2.80;1.50;;;6.60;99.90;;;;;;5058553;28;20044;-67
2021/12/19 12:09:32;;;;;;;5.40;1.33;;;6.60;99.90;;;;;;5059119;28;20043;-69
2021/12/19 12:12:02;;;;;;;4.97;1.30;;;6.60;99.90;;;;;;5059123;28;20360;-68
2021/12/19 12:14:34;;;;;;;4.75;1.38;;;6.60;99.90;;;;;;5058933;28;20021;-66
2021/12/19 12:17:15;;;;;;;4.95;1.20;;;6.60;99.90;;;;;;5058667;28;20021;-66
2021/12/19 12:19:55;;;;;;;3.13;0.98;;;6.60;99.90;;;;;;5059056;28;20017;-67
2021/12/19 12:22:27;;;;;;;4.68;1.13;;;6.60;99.90;;;;;;5058417;28;20048;-67
2021/12/19 12:25:05;;;;;;;1.92;0.60;;;6.60;99.90;;;;;;5059056;28;20029;-66
2021/12/19 12:27:42;;;;;;;2.88;1.10;;;6.60;99.90;;;;;;5058287;28;20025;-66
2021/12/19 12:30:16;;;;;;;3.50;0.98;;;6.60;99.90;;;;;;5057757;28;20142;-66
2021/12/19 12:32:44;;;;;;;2.17;0.98;;;6.50;99.90;;;;;;5058051;28;20045;-66
2021/12/19 12:35:14;;;;;;;4.30;1.27;;;6.50;99.90;;;;;;5057499;28;20044;-66
2021/12/19 12:37:43;;;;;;;3.10;1.27;;;6.60;99.90;;;;;;5058027;28;20427;-67
2021/12/19 12:40:20;;;;;;;2.83;1.23;;;6.50;99.90;;;;;;5057341;28;20417;-66
2021/12/19 12:42:57;;;;;;;4.95;2.33;;;6.60;99.90;;;;;;5057055;28;20048;-66
2021/12/19 12:45:26;;;;;;;7.90;1.05;;;6.60;99.90;;;;;;5057239;28;20025;-67
2021/12/19 12:47:53;;;;;;;5.70;1.10;;;6.60;99.90;;;;;;5057859;28;20032;-67
2021/12/19 12:50:21;;;;;;;3.67;1.08;;;6.60;99.90;;;;;;5057081;28;20425;-67
2021/12/19 12:52:48;;;;;;;2.38;1.10;;;6.50;99.90;;;;;;5058044;28;20107;-67
2021/12/19 12:55:17;;;;;;;4.45;0.82;;;6.50;99.90;;;;;;5057911;28;20049;-67
2021/12/19 12:57:45;;;;;;;2.83;1.10;;;6.60;99.90;;;;;;5057837;28;20032;-67
2021/12/19 13:00:21;;;;;;;6.95;2.45;;;6.60;99.90;;;;;;5057843;28;20352;-67
2021/12/19 13:03:08;;;;;;;2.90;1.10;;;6.60;99.90;;;;;;5056835;28;20035;-66
2021/12/19 13:05:36;;;;;;;6.20;1.25;;;6.60;99.90;;;;;;5057728;28;20369;-66
2021/12/19 13:08:04;;;;;;;3.45;1.17;;;6.60;99.90;;;;;;5056660;28;20049;-67
2021/12/19 13:10:32;;;;;;;3.25;1.73;;;6.60;99.90;;;;;;5056814;28;20032;-66
2021/12/19 13:13:09;;;;;;;4.93;1.85;;;6.60;99.90;;;;;;5056882;28;20363;-67
2021/12/19 13:15:38;;;;;;;4.00;1.88;;;6.60;99.90;;;;;;5056685;28;20026;-66
2021/12/19 13:18:06;;;;;;;4.97;1.38;;;6.60;99.90;;;;;;5057294;28;20045;-66
2021/12/19 13:20:36;;;;;;;10.32;2.35;;;6.60;99.90;;;;;;5056765;28;20017;-67
2021/12/19 13:23:05;;;;;;;4.47;1.17;;;6.60;99.90;;;;;;5056730;28;20292;-68
2021/12/19 13:25:41;;;;;;;3.30;1.20;;;6.60;99.90;;;;;;5055496;28;20306;-69
2021/12/19 13:28:12;;;;;;;2.95;0.95;;;6.50;99.90;;;;;;5056509;28;20029;-69
2021/12/19 13:30:43;;;;;;;6.40;0.75;;;6.50;99.90;;;;;;5056793;28;20025;-68
2021/12/19 13:33:16;;;;;;;7.55;1.63;;;6.60;99.90;;;;;;5057759;28;20017;-69
2021/12/19 13:35:52;;;;;;;5.00;2.30;;;6.50;99.90;;;;;;5057442;28;20321;-69
2021/12/19 13:38:23;;;;;;;5.32;1.77;;;6.60;99.90;;;;;;5057969;28;20027;-69
2021/12/19 13:40:55;;;;;;;5.78;1.75;;;6.50;99.90;;;;;;5057393;28;20028;-69
2021/12/19 13:43:29;;;;;;;5.75;1.90;;;6.50;99.90;;;;;;5057436;28;20416;-69
2021/12/19 13:45:58;;;;;;;4.90;2.05;;;6.50;99.90;;;;;;5057341;28;20025;-69
2021/12/19 13:48:31;;;;;;;7.07;1.70;;;6.50;99.90;;;;;;5057314;28;20440;-69
2021/12/19 13:51:01;;;;;;;5.72;1.85;;;6.50;99.90;;;;;;5057268;28;20446;-69
2021/12/19 13:53:31;;;;;;;5.32;1.50;;;6.50;99.90;;;;;;5056296;28;20071;-69
2021/12/19 13:56:03;;;;;;;7.93;1.50;;;6.50;99.90;;;;;;5054996;28;20049;-69
2021/12/19 13:58:37;;;;;;;5.75;1.05;;;6.50;99.90;;;;;;5056322;28;20021;-69
2021/12/19 14:01:20;;;;;;;9.70;2.50;;;6.50;99.90;;;;;;5055168;28;20368;-69